Time;durP1;ratioP1;P1;durP2;ratioP2;P2;SDS_P1;SDS_P2;PMS_P1;PMS_P2;Temp;Humidity;BMP_temperature;BMP_pressure;BME280_temperature;BME280_humidity;BME280_pressure;Samples;Min_cycle;Max_cycle;Signal;HPM_P1;HPM_P2
2023/11/05 00:02:00;;;;;;;2.53;0.57;;;;;;;8.11;100.00;96894.84;5029320;28;20397;-82
2023/11/05 00:04:26;;;;;;;1.10;1.10;;;;;;;8.12;100.00;96895.66;5019068;28;20096;-79
2023/11/05 00:06:52;;;;;;;1.05;0.70;;;;;;;8.10;100.00;96905.38;5045139;28;20489;-79
2023/11/05 00:09:19;;;;;;;0.60;0.47;;;;;;;8.09;100.00;96885.44;5044950;28;20089;-77
2023/11/05 00:11:46;;;;;;;0.30;0.20;;;;;;;8.05;100.00;96897.81;5031719;28;20059;-78
2023/11/05 00:14:13;;;;;;;0.80;0.43;;;;;;;8.03;100.00;96891.00;5041783;28;20048;-79
2023/11/05 00:16:39;;;;;;;1.10;0.68;;;;;;;8.02;100.00;96905.00;5043668;28;20074;-77
2023/11/05 00:19:07;;;;;;;2.47;1.02;;;;;;;8.00;100.00;96906.84;5031285;28;20525;-77
2023/11/05 00:21:34;;;;;;;1.38;1.15;;;;;;;7.99;100.00;96908.63;5038970;28;20113;-77
2023/11/05 00:24:01;;;;;;;1.30;1.10;;;;;;;8.01;100.00;96906.75;5044677;28;20128;-78
2023/11/05 00:26:28;;;;;;;1.35;0.75;;;;;;;8.02;100.00;96907.59;5028357;28;20525;-81
2023/11/05 00:28:54;;;;;;;1.83;1.17;;;;;;;8.04;100.00;96913.53;5045291;28;20041;-81
2023/11/05 00:31:23;;;;;;;1.65;1.42;;;;;;;8.01;100.00;96917.16;5043760;28;20342;-78
2023/11/05 00:33:49;;;;;;;1.17;0.95;;;;;;;8.04;100.00;96918.75;5025144;28;20053;-77
2023/11/05 00:36:16;;;;;;;2.20;0.65;;;;;;;8.06;100.00;96912.53;5034796;28;20094;-76
2023/11/05 00:38:43;;;;;;;2.95;0.50;;;;;;;8.09;100.00;96917.53;5041942;28;20049;-78
2023/11/05 00:41:09;;;;;;;1.55;0.60;;;;;;;8.06;100.00;96911.69;5035963;28;20044;-80
2023/11/05 00:43:36;;;;;;;1.30;0.60;;;;;;;8.06;100.00;96919.50;5021840;28;20072;-77
2023/11/05 00:46:02;;;;;;;0.85;0.60;;;;;;;8.08;100.00;96921.09;5025646;28;20674;-79
2023/11/05 00:48:29;;;;;;;2.92;0.40;;;;;;;8.08;100.00;96917.63;5028424;28;20041;-81
2023/11/05 00:50:57;;;;;;;1.15;0.60;;;;;;;8.14;100.00;96917.28;5044950;28;20037;-78
2023/11/05 00:53:24;;;;;;;0.77;0.77;;;;;;;8.17;100.00;96908.44;5058347;28;20136;-79
2023/11/05 00:55:52;;;;;;;2.03;0.65;;;;;;;8.18;100.00;96908.34;5037093;28;20034;-77
2023/11/05 00:58:19;;;;;;;2.08;1.05;;;;;;;8.20;100.00;96913.47;5035407;28;20056;-80
2023/11/05 01:00:45;;;;;;;1.27;0.70;;;;;;;8.19;100.00;96915.25;5044853;28;20511;-76
2023/11/05 01:03:13;;;;;;;3.22;0.88;;;;;;;8.20;100.00;96903.03;5041180;28;20061;-76
2023/11/05 01:05:39;;;;;;;1.05;0.60;;;;;;;8.20;100.00;96901.28;5047288;28;20049;-78
2023/11/05 01:08:06;;;;;;;3.03;0.65;;;;;;;8.27;100.00;96899.97;5019026;28;20519;-77
2023/11/05 01:10:32;;;;;;;0.90;0.60;;;;;;;8.38;100.00;96893.28;5025607;28;20614;-78
2023/11/05 01:13:00;;;;;;;3.63;0.77;;;;;;;8.45;100.00;96910.22;5040068;28;20053;-80
2023/11/05 01:15:27;;;;;;;0.63;0.60;;;;;;;8.47;100.00;96913.59;5041319;28;20047;-79
2023/11/05 01:17:53;;;;;;;0.52;0.52;;;;;;;8.53;100.00;96913.25;5038980;28;20618;-82
2023/11/05 01:20:20;;;;;;;0.93;0.70;;;;;;;8.58;100.00;96910.38;5050346;28;20053;-78
2023/11/05 01:22:51;;;;;;;1.27;0.75;;;;;;;8.56;100.00;96905.22;5029871;28;20041;-76
2023/11/05 01:25:19;;;;;;;1.25;1.13;;;;;;;8.52;100.00;96901.13;5024894;28;20069;-78
2023/11/05 01:27:45;;;;;;;3.13;0.60;;;;;;;8.51;100.00;96902.06;5042878;28;20044;-76
2023/11/05 01:30:13;;;;;;;0.80;0.80;;;;;;;8.48;100.00;96901.44;5037017;28;20032;-78
2023/11/05 01:32:39;;;;;;;2.33;1.02;;;;;;;8.45;100.00;96897.22;5041587;28;20045;-78
2023/11/05 01:35:07;;;;;;;3.08;0.88;;;;;;;8.44;100.00;96901.56;5020857;28;20045;-78
2023/11/05 01:37:33;;;;;;;1.55;1.45;;;;;;;8.47;100.00;96897.97;5045411;28;20048;-79
2023/11/05 01:40:01;;;;;;;4.10;1.65;;;;;;;8.50;100.00;96895.19;5026578;28;20048;-80
2023/11/05 01:42:30;;;;;;;1.02;0.93;;;;;;;8.53;100.00;96895.00;5040461;28;20151;-82
2023/11/05 01:44:56;;;;;;;1.05;0.95;;;;;;;8.56;100.00;96893.97;5023217;28;20098;-80
2023/11/05 01:47:23;;;;;;;4.15;1.15;;;;;;;8.59;100.00;96889.41;5042259;28;20469;-81
2023/11/05 01:49:51;;;;;;;2.03;0.90;;;;;;;8.63;100.00;96891.81;5054198;28;20059;-78
2023/11/05 01:52:21;;;;;;;0.95;0.77;;;;;;;8.66;100.00;96884.66;5039950;28;20056;-78
2023/11/05 01:54:48;;;;;;;0.75;0.60;;;;;;;8.69;100.00;96881.03;5037771;28;20148;-78
2023/11/05 01:57:15;;;;;;;0.70;0.70;;;;;;;8.74;100.00;96882.41;5045152;28;20099;-80
2023/11/05 01:59:42;;;;;;;0.85;0.85;;;;;;;8.77;100.00;96876.16;5034976;28;20365;-77
2023/11/05 02:02:09;;;;;;;0.60;0.60;;;;;;;8.78;100.00;96876.06;5040560;28;20085;-79
2023/11/05 02:04:36;;;;;;;2.67;0.75;;;;;;;8.82;100.00;96878.50;5040383;28;20057;-78
2023/11/05 02:07:03;;;;;;;0.65;0.50;;;;;;;8.81;100.00;96869.81;5019102;28;20044;-79
2023/11/05 02:09:30;;;;;;;2.30;0.70;;;;;;;8.81;100.00;96867.19;5028307;28;20135;-82
2023/11/05 02:11:58;;;;;;;1.42;0.52;;;;;;;8.84;100.00;96864.41;5052216;28;20053;-80
2023/11/05 02:14:25;;;;;;;1.50;0.50;;;;;;;8.86;100.00;96865.13;5049761;28;20406;-78
2023/11/05 02:16:52;;;;;;;0.68;0.40;;;;;;;8.88;100.00;96857.25;5048303;28;20060;-78
2023/11/05 02:19:19;;;;;;;2.13;0.60;;;;;;;8.91;100.00;96854.44;5030769;28;20154;-78
2023/11/05 02:21:53;;;;;;;0.95;0.95;;;;;;;8.95;100.00;96850.69;5048081;28;20040;-78
2023/11/05 02:24:20;;;;;;;1.33;0.45;;;;;;;8.98;100.00;96855.69;5045308;28;20061;-78
2023/11/05 02:27:00;;;;;;;2.22;1.20;;;;;;;9.01;100.00;96839.00;5034338;28;20381;-78
2023/11/05 02:29:29;;;;;;;1.55;0.30;;;;;;;9.03;100.00;96851.03;5050498;28;20830;-78
2023/11/05 02:31:56;;;;;;;1.50;0.60;;;;;;;9.07;100.00;96838.63;5047243;28;20044;-79
2023/11/05 02:34:22;;;;;;;1.05;0.60;;;;;;;9.10;100.00;96843.66;5056695;28;20753;-79
2023/11/05 02:36:49;;;;;;;0.43;0.43;;;;;;;9.15;100.00;96851.19;5047352;28;20051;-84
2023/11/05 02:39:16;;;;;;;4.15;1.20;;;;;;;9.20;100.00;96841.28;5037934;28;20041;-78
2023/11/05 02:41:42;;;;;;;2.55;0.55;;;;;;;9.21;100.00;96840.38;5039634;28;20051;-84
2023/11/05 02:44:09;;;;;;;1.48;0.70;;;;;;;9.24;100.00;96841.00;5041549;28;20037;-77
2023/11/05 02:46:35;;;;;;;1.65;0.50;;;;;;;9.25;100.00;96831.41;5042324;28;20048;-82
2023/11/05 02:49:02;;;;;;;0.75;0.63;;;;;;;9.33;100.00;96831.72;5042665;28;20041;-83
2023/11/05 02:51:31;;;;;;;0.45;0.45;;;;;;;9.36;100.00;96830.69;5036910;28;20124;-80
2023/11/05 02:53:58;;;;;;;1.15;0.35;;;;;;;9.39;100.00;96820.88;5041541;28;20068;-81
2023/11/05 02:56:25;;;;;;;2.40;0.35;;;;;;;9.42;100.00;96819.84;5025497;28;20068;-82
2023/11/05 02:58:52;;;;;;;0.75;0.50;;;;;;;9.42;100.00;96812.84;5048011;28;20065;-81
2023/11/05 03:01:27;;;;;;;2.55;0.63;;;;;;;9.42;100.00;96818.06;5022429;28;20781;-80
2023/11/05 03:03:54;;;;;;;1.15;0.40;;;;;;;9.43;100.00;96813.69;5036329;28;20063;-80
2023/11/05 03:06:20;;;;;;;0.32;0.32;;;;;;;9.39;100.00;96810.44;5041520;28;20033;-77
2023/11/05 03:08:47;;;;;;;1.23;0.30;;;;;;;9.31;100.00;96807.50;5034226;28;20041;-77
2023/11/05 03:11:14;;;;;;;2.55;1.30;;;;;;;9.27;100.00;96809.47;5038302;28;20139;-77
2023/11/05 03:13:41;;;;;;;0.55;0.35;;;;;;;9.22;100.00;96806.34;5026733;28;20055;-78
2023/11/05 03:16:11;;;;;;;0.40;0.40;;;;;;;9.17;100.00;96797.16;5050915;28;20036;-82
2023/11/05 03:18:39;;;;;;;1.05;0.68;;;;;;;9.12;100.00;96800.03;5058865;28;20120;-78
2023/11/05 03:21:06;;;;;;;2.60;1.40;;;;;;;9.08;100.00;96799.41;5040352;28;20053;-78
2023/11/05 03:23:34;;;;;;;1.58;1.33;;;;;;;9.03;100.00;96804.06;5044382;28;20126;-80
2023/11/05 03:26:01;;;;;;;1.05;0.80;;;;;;;9.04;100.00;96803.16;5043603;28;20114;-80
2023/11/05 03:28:27;;;;;;;2.50;0.45;;;;;;;9.01;100.00;96792.06;5040521;28;20044;-81
2023/11/05 03:30:54;;;;;;;0.28;0.28;;;;;;;8.98;100.00;96795.69;5040000;28;20045;-85
2023/11/05 03:33:21;;;;;;;0.75;0.55;;;;;;;8.98;100.00;96795.69;5042056;28;20038;-80
2023/11/05 03:35:51;;;;;;;1.05;0.63;;;;;;;9.02;100.00;96788.53;5045405;28;20044;-79
2023/11/05 03:38:17;;;;;;;3.38;0.57;;;;;;;9.06;100.00;96792.59;5043845;28;20081;-79
2023/11/05 03:40:44;;;;;;;7.18;0.73;;;;;;;9.07;100.00;96791.66;5041878;28;20156;-77
2023/11/05 03:43:11;;;;;;;2.13;1.10;;;;;;;9.16;100.00;96798.06;5044316;28;20047;-80
2023/11/05 03:45:39;;;;;;;2.53;0.40;;;;;;;9.19;100.00;96790.88;5045446;28;20045;-77
2023/11/05 03:48:07;;;;;;;1.63;0.40;;;;;;;9.23;100.00;96791.50;5029409;28;20053;-79
2023/11/05 03:50:34;;;;;;;2.97;0.60;;;;;;;9.25;100.00;96790.47;5041361;28;20044;-79
2023/11/05 03:53:01;;;;;;;3.35;0.65;;;;;;;9.26;100.00;96791.31;5039372;28;20037;-78
2023/11/05 03:55:27;;;;;;;1.65;0.57;;;;;;;9.31;100.00;96791.84;5042737;28;20047;-80
2023/11/05 03:57:54;;;;;;;1.42;0.60;;;;;;;9.36;100.00;96796.75;5026282;28;20053;-77
2023/11/05 04:00:21;;;;;;;1.27;1.17;;;;;;;9.40;100.00;96793.03;5047420;28;20045;-78
2023/11/05 04:02:47;;;;;;;4.32;0.63;;;;;;;9.43;100.00;96793.63;5059319;28;20060;-81
2023/11/05 04:05:18;;;;;;;2.83;0.50;;;;;;;9.44;100.00;96797.09;5028727;28;20060;-80
2023/11/05 04:07:44;;;;;;;2.20;0.55;;;;;;;9.49;100.00;96788.94;5023186;28;20056;-79
2023/11/05 04:10:11;;;;;;;4.93;0.80;;;;;;;9.51;100.00;96784.47;5039799;28;20221;-76
2023/11/05 04:12:38;;;;;;;0.68;0.47;;;;;;;9.52;100.00;96786.16;5029096;28;20077;-77
2023/11/05 04:15:06;;;;;;;1.10;0.70;;;;;;;9.53;100.00;96783.44;5035208;28;20448;-78
2023/11/05 04:17:34;;;;;;;3.05;0.60;;;;;;;9.54;100.00;96779.88;5042338;28;20041;-77
2023/11/05 04:20:05;;;;;;;2.88;0.55;;;;;;;9.58;100.00;96783.09;5037656;28;20055;-80
2023/11/05 04:22:32;;;;;;;6.63;0.57;;;;;;;9.56;100.00;96780.59;5037219;28;20472;-80
2023/11/05 04:24:59;;;;;;;3.85;0.47;;;;;;;9.60;100.00;96774.22;5023109;28;20369;-80
2023/11/05 04:27:25;;;;;;;3.00;0.38;;;;;;;9.63;100.00;96773.19;5041363;28;20385;-77
2023/11/05 04:29:54;;;;;;;4.68;1.42;;;;;;;9.63;100.00;96767.97;5037377;28;20057;-78
2023/11/05 04:32:21;;;;;;;1.65;0.60;;;;;;;9.66;100.00;96767.78;5034958;28;20113;-81
2023/11/05 04:34:47;;;;;;;4.22;1.00;;;;;;;9.65;100.00;96768.72;5035149;28;20952;-78
2023/11/05 04:37:14;;;;;;;2.38;0.75;;;;;;;9.69;100.00;96758.91;5042205;28;20079;-76
2023/11/05 04:39:43;;;;;;;7.53;1.35;;;;;;;9.70;100.00;96766.63;5046201;28;20651;-81
2023/11/05 04:42:11;;;;;;;3.80;1.40;;;;;;;9.70;100.00;96760.56;5041252;28;20339;-77
2023/11/05 04:44:38;;;;;;;2.30;0.77;;;;;;;9.69;100.00;96761.50;5038966;28;20586;-77
2023/11/05 04:47:06;;;;;;;2.15;0.68;;;;;;;9.68;100.00;96759.84;5038993;28;20045;-79
2023/11/05 04:49:32;;;;;;;2.33;0.52;;;;;;;9.67;100.00;96758.97;5037364;28;20134;-78
2023/11/05 04:52:02;;;;;;;3.75;0.90;;;;;;;9.65;100.00;96760.88;5038183;28;20053;-78
2023/11/05 04:54:30;;;;;;;0.98;0.50;;;;;;;9.62;100.00;96757.63;5026514;28;20187;-79
2023/11/05 04:56:59;;;;;;;4.68;0.80;;;;;;;9.62;100.00;96760.25;5035264;28;20044;-79
2023/11/05 04:59:26;;;;;;;3.78;1.05;;;;;;;9.61;100.00;96756.81;5040358;28;20068;-79
2023/11/05 05:01:52;;;;;;;3.80;0.47;;;;;;;9.63;100.00;96754.91;5036245;28;20049;-80
2023/11/05 05:04:19;;;;;;;0.57;0.50;;;;;;;9.61;100.00;96756.81;5037351;28;20049;-78
2023/11/05 05:06:49;;;;;;;2.22;0.88;;;;;;;9.63;100.00;96761.91;5041696;28;20056;-76
2023/11/05 05:09:16;;;;;;;2.03;0.50;;;;;;;9.63;100.00;96760.13;5043366;28;20082;-80
2023/11/05 05:11:42;;;;;;;4.25;0.80;;;;;;;9.61;100.00;96762.03;5020449;28;20107;-79
2023/11/05 05:14:09;;;;;;;1.48;1.00;;;;;;;9.65;100.00;96766.09;5019954;28;20143;-83
2023/11/05 05:16:35;;;;;;;3.00;0.70;;;;;;;9.64;100.00;96761.00;5021337;28;20402;-83
2023/11/05 05:19:05;;;;;;;2.60;0.68;;;;;;;9.61;100.00;96754.19;5037418;28;20163;-78
2023/11/05 05:21:31;;;;;;;0.55;0.50;;;;;;;9.57;100.00;96758.78;5031087;28;20090;-83
2023/11/05 05:24:01;;;;;;;4.22;0.73;;;;;;;9.52;100.00;96754.81;5035591;28;20041;-79
2023/11/05 05:26:28;;;;;;;1.60;0.45;;;;;;;9.49;100.00;96747.19;5036295;28;20096;-80
2023/11/05 05:28:54;;;;;;;5.20;0.80;;;;;;;9.38;100.00;96747.91;5035566;28;20072;-81
2023/11/05 05:31:21;;;;;;;9.60;1.25;;;;;;;9.33;100.00;96750.00;5033590;28;20069;-81
2023/11/05 05:33:47;;;;;;;3.88;0.40;;;;;;;9.28;100.00;96750.28;5034752;28;20050;-78
2023/11/05 05:36:14;;;;;;;0.68;0.50;;;;;;;9.22;100.00;96754.16;5037698;28;20033;-78
2023/11/05 05:38:41;;;;;;;3.58;0.70;;;;;;;9.20;100.00;96753.41;5034816;28;20145;-79
2023/11/05 05:41:07;;;;;;;4.40;0.98;;;;;;;9.18;100.00;96751.84;5039113;28;20049;-78
2023/11/05 05:43:34;;;;;;;3.10;0.90;;;;;;;9.11;100.00;96756.63;5038787;28;20049;-82
2023/11/05 05:46:00;;;;;;;0.43;0.40;;;;;;;9.03;100.00;96749.28;5041601;28;20052;-79
2023/11/05 05:48:27;;;;;;;2.70;0.68;;;;;;;9.00;100.00;96748.69;5043609;28;20140;-77
2023/11/05 05:50:53;;;;;;;2.78;0.90;;;;;;;8.93;100.00;96749.06;5039374;28;20080;-77
2023/11/05 05:53:20;;;;;;;6.47;0.85;;;;;;;8.92;100.00;96746.56;5037358;28;20048;-78
2023/11/05 05:55:47;;;;;;;3.67;1.55;;;;;;;8.91;100.00;96740.50;5035821;28;20644;-79
2023/11/05 05:58:15;;;;;;;3.58;0.77;;;;;;;8.91;100.00;96743.09;5033988;28;20505;-78
2023/11/05 06:00:46;;;;;;;3.78;1.08;;;;;;;8.90;100.00;96749.28;5037406;28;20127;-79
2023/11/05 06:03:12;;;;;;;4.90;0.82;;;;;;;8.91;100.00;96757.94;5038947;28;20524;-80
2023/11/05 06:05:39;;;;;;;9.18;1.40;;;;;;;8.93;100.00;96756.06;5056993;28;20128;-79
2023/11/05 06:08:05;;;;;;;2.05;0.50;;;;;;;8.96;100.00;96755.84;5033535;28;20049;-78
2023/11/05 06:10:32;;;;;;;4.68;1.95;;;;;;;8.98;100.00;96753.16;5038458;28;20043;-80
2023/11/05 06:12:58;;;;;;;2.78;0.68;;;;;;;8.99;100.00;96753.03;5036128;28;20115;-77
2023/11/05 06:15:25;;;;;;;4.22;1.20;;;;;;;9.00;100.00;96754.72;5037989;28;20126;-81
2023/11/05 06:17:51;;;;;;;5.03;1.27;;;;;;;9.01;100.00;96758.16;5042202;28;20097;-78
2023/11/05 06:20:18;;;;;;;7.95;1.70;;;;;;;8.99;100.00;96758.25;5038752;28;20053;-78
2023/11/05 06:22:44;;;;;;;7.68;1.10;;;;;;;9.02;100.00;96754.63;5041801;28;20059;-84
2023/11/05 06:25:11;;;;;;;5.35;2.25;;;;;;;9.03;100.00;96751.06;5040247;28;20428;-78
2023/11/05 06:27:38;;;;;;;1.83;0.70;;;;;;;9.02;100.00;96752.84;5036934;28;20073;-78
2023/11/05 06:30:07;;;;;;;11.30;2.55;;;;;;;8.99;100.00;96747.81;5032227;28;20076;-82
2023/11/05 06:32:34;;;;;;;2.80;0.85;;;;;;;8.94;100.00;96750.75;5036473;28;20087;-81
2023/11/05 06:35:01;;;;;;;3.58;0.73;;;;;;;8.92;100.00;96750.00;5053984;28;20091;-81
2023/11/05 06:37:30;;;;;;;1.35;0.70;;;;;;;8.88;100.00;96748.53;5028629;28;20048;-78
2023/11/05 06:39:57;;;;;;;3.25;0.80;;;;;;;8.86;100.00;96753.00;5036905;28;20036;-82
2023/11/05 06:42:27;;;;;;;1.50;0.70;;;;;;;8.92;100.00;96741.34;5039129;28;20373;-80
2023/11/05 06:44:57;;;;;;;4.63;0.88;;;;;;;8.93;100.00;96743.03;5040351;28;20312;-77
2023/11/05 06:47:27;;;;;;;4.82;1.27;;;;;;;8.94;100.00;96744.69;5044277;28;20873;-78
2023/11/05 06:49:56;;;;;;;4.28;0.90;;;;;;;8.99;100.00;96745.22;5043734;28;20098;-79
2023/11/05 06:52:22;;;;;;;5.85;0.85;;;;;;;9.00;100.00;96744.28;5020444;28;20098;-79
2023/11/05 06:54:49;;;;;;;3.15;1.05;;;;;;;8.98;100.00;96748.75;5036856;28;20037;-84
2023/11/05 06:57:16;;;;;;;3.95;0.93;;;;;;;9.00;100.00;96743.47;5042555;28;20436;-78
2023/11/05 06:59:42;;;;;;;3.95;1.40;;;;;;;9.03;100.00;96745.84;5045496;28;20121;-79
2023/11/05 07:02:10;;;;;;;3.17;0.80;;;;;;;9.02;100.00;96746.78;5042027;28;20045;-78
2023/11/05 07:04:38;;;;;;;1.23;0.60;;;;;;;9.03;100.00;96740.63;5043640;28;20867;-81
2023/11/05 07:07:05;;;;;;;2.20;0.70;;;;;;;9.02;100.00;96746.78;5040334;28;20159;-78
2023/11/05 07:09:32;;;;;;;4.15;0.80;;;;;;;9.09;100.00;96737.63;5026083;28;20045;-78
2023/11/05 07:11:58;;;;;;;5.03;0.88;;;;;;;9.08;100.00;96751.59;5028279;28;20059;-80
2023/11/05 07:14:25;;;;;;;4.38;0.75;;;;;;;9.11;100.00;96751.41;5042497;28;20135;-79
2023/11/05 07:16:51;;;;;;;4.38;0.70;;;;;;;9.10;100.00;96745.34;5028604;28;20177;-77
2023/11/05 07:19:19;;;;;;;2.35;0.50;;;;;;;9.14;100.00;96740.78;5044061;28;20033;-77
2023/11/05 07:21:46;;;;;;;2.00;0.55;;;;;;;9.17;100.00;96743.19;5045435;28;20055;-83
2023/11/05 07:24:14;;;;;;;2.78;0.50;;;;;;;9.24;100.00;96752.28;5044282;28;20053;-78
2023/11/05 07:26:41;;;;;;;4.70;0.77;;;;;;;9.26;100.00;96749.56;5046824;28;20121;-77
2023/11/05 07:29:08;;;;;;;4.80;0.65;;;;;;;9.31;100.00;96752.72;5046787;28;20123;-79
2023/11/05 07:31:34;;;;;;;3.55;0.52;;;;;;;9.32;100.00;96757.00;5054796;28;20092;-81
2023/11/05 07:34:01;;;;;;;2.40;0.60;;;;;;;9.38;100.00;96750.53;5049206;28;20048;-77
2023/11/05 07:36:28;;;;;;;3.67;0.45;;;;;;;9.44;100.00;96760.56;5047061;28;20052;-78
2023/11/05 07:38:54;;;;;;;4.70;1.02;;;;;;;9.53;100.00;96761.69;5046898;28;20181;-78
2023/11/05 07:41:21;;;;;;;3.80;0.47;;;;;;;9.55;100.00;96762.44;5050896;28;20066;-81
2023/11/05 07:43:47;;;;;;;0.60;0.55;;;;;;;9.56;100.00;96770.16;5062607;28;20048;-82
2023/11/05 07:46:17;;;;;;;3.92;0.68;;;;;;;9.59;100.00;96766.50;5051749;28;20037;-79
2023/11/05 07:48:47;;;;;;;4.95;0.50;;;;;;;9.64;100.00;96767.03;5042304;28;20049;-82
2023/11/05 07:51:18;;;;;;;0.65;0.40;;;;;;;9.68;100.00;96770.28;5046012;28;20040;-79
2023/11/05 07:53:44;;;;;;;2.15;0.77;;;;;;;9.72;100.00;96764.72;5028056;28;20062;-79
2023/11/05 07:56:11;;;;;;;6.78;2.00;;;;;;;9.74;100.00;96765.47;5043916;28;20040;-77
2023/11/05 07:58:37;;;;;;;0.98;0.45;;;;;;;9.75;100.00;96763.69;5046584;28;20041;-82
2023/11/05 08:01:08;;;;;;;4.20;0.50;;;;;;;9.77;100.00;96764.44;5049827;28;20047;-79
2023/11/05 08:03:35;;;;;;;1.60;0.57;;;;;;;9.76;100.00;96758.38;5041136;28;20056;-80
2023/11/05 08:06:01;;;;;;;0.95;0.28;;;;;;;9.77;100.00;96752.19;5024628;28;20037;-79
2023/11/05 08:08:28;;;;;;;0.75;0.38;;;;;;;9.82;100.00;96759.72;5040167;28;20049;-77
2023/11/05 08:10:55;;;;;;;2.78;0.65;;;;;;;9.86;100.00;96761.19;5038240;28;20065;-78
2023/11/05 08:13:22;;;;;;;2.80;0.80;;;;;;;9.88;100.00;96761.06;5037526;28;20044;-78
2023/11/05 08:15:48;;;;;;;0.52;0.47;;;;;;;9.83;100.00;96760.56;5036071;28;20520;-81
2023/11/05 08:18:15;;;;;;;1.23;0.40;;;;;;;9.91;100.00;96760.88;5039481;28;20480;-81
2023/11/05 08:20:42;;;;;;;4.47;0.68;;;;;;;9.90;100.00;96764.44;5038572;28;20124;-78
2023/11/05 08:23:09;;;;;;;1.27;0.32;;;;;;;9.98;100.00;96767.34;5043916;28;20045;-77
2023/11/05 08:25:35;;;;;;;4.13;0.55;;;;;;;10.04;100.00;96761.69;5044656;28;20047;-77
2023/11/05 08:28:03;;;;;;;1.23;0.50;;;;;;;10.08;100.00;96757.94;5043467;28;20077;-78
2023/11/05 08:30:29;;;;;;;0.65;0.32;;;;;;;10.15;100.00;96767.97;5057864;28;20081;-82
2023/11/05 08:32:56;;;;;;;2.28;0.60;;;;;;;10.19;100.00;96775.47;5042356;28;20045;-79
2023/11/05 08:35:25;;;;;;;0.55;0.30;;;;;;;10.23;100.00;96773.47;5025072;28;20079;-76
2023/11/05 08:37:53;;;;;;;1.17;0.60;;;;;;;10.32;100.00;96775.44;5039950;28;20441;-77
2023/11/05 08:40:19;;;;;;;2.60;0.55;;;;;;;10.40;100.00;96772.31;5031202;28;20057;-78
2023/11/05 08:42:47;;;;;;;0.63;0.47;;;;;;;10.46;100.00;96769.28;5040257;28;20041;-81
2023/11/05 08:45:15;;;;;;;2.53;0.47;;;;;;;10.54;100.00;96772.19;5059895;28;20135;-77
2023/11/05 08:47:41;;;;;;;0.40;0.32;;;;;;;10.62;100.00;96768.19;5034514;28;20143;-77
2023/11/05 08:50:08;;;;;;;3.72;0.77;;;;;;;10.52;100.00;96778.47;5039653;28;20050;-81
2023/11/05 08:52:35;;;;;;;4.43;0.43;;;;;;;10.47;100.00;96776.19;5043803;28;20032;-80
2023/11/05 08:55:03;;;;;;;1.13;0.13;;;;;;;10.40;100.00;96780.16;5043820;28;20041;-78
2023/11/05 08:57:30;;;;;;;0.95;0.45;;;;;;;10.46;100.00;96778.91;5042221;28;20057;-81
2023/11/05 08:59:59;;;;;;;2.72;0.47;;;;;;;10.46;100.00;96784.97;5041710;28;20462;-81
2023/11/05 09:02:27;;;;;;;2.72;0.38;;;;;;;10.48;100.00;96782.25;5030022;28;20045;-81
2023/11/05 09:04:55;;;;;;;0.73;0.73;;;;;;;10.49;100.00;96781.31;5040781;28;20131;-79
2023/11/05 09:07:22;;;;;;;1.83;0.25;;;;;;;10.54;100.00;96782.63;5041524;28;20044;-83
2023/11/05 09:09:50;;;;;;;0.80;0.55;;;;;;;10.71;100.00;96776.19;5026672;28;20080;-78
2023/11/05 09:12:17;;;;;;;4.63;0.80;;;;;;;10.78;100.00;96784.47;5041271;28;20049;-80
2023/11/05 09:14:44;;;;;;;1.00;0.52;;;;;;;10.80;100.00;96785.19;5023909;28;20037;-78
2023/11/05 09:17:11;;;;;;;0.50;0.30;;;;;;;10.91;100.00;96790.47;5037525;28;20049;-79
2023/11/05 09:19:37;;;;;;;3.28;0.50;;;;;;;11.03;100.00;96785.28;5039376;28;20052;-82
2023/11/05 09:22:04;;;;;;;1.10;0.30;;;;;;;11.09;100.00;96792.69;5040471;28;20132;-80
2023/11/05 09:24:30;;;;;;;2.13;1.08;;;;;;;11.10;100.00;96789.13;5037504;28;20116;-79
2023/11/05 09:26:57;;;;;;;0.85;0.30;;;;;;;11.15;100.00;96800.09;5036218;28;20053;-79
2023/11/05 09:29:24;;;;;;;1.85;0.20;;;;;;;11.16;100.00;96796.53;5052975;28;20057;-78
2023/11/05 09:31:50;;;;;;;3.38;0.20;;;;;;;11.17;100.00;96802.59;5038379;28;20120;-80
2023/11/05 09:34:17;;;;;;;4.18;0.95;;;;;;;11.25;100.00;96797.63;5031526;28;20055;-78
2023/11/05 09:36:44;;;;;;;8.35;1.95;;;;;;;11.28;100.00;96800.03;5050856;28;20047;-81
2023/11/05 09:39:12;;;;;;;1.88;0.20;;;;;;;11.36;100.00;96799.47;5034503;28;20037;-78
2023/11/05 09:41:39;;;;;;;2.28;0.20;;;;;;;11.33;100.00;96805.78;5051764;28;20065;-79
2023/11/05 09:44:10;;;;;;;0.90;0.30;;;;;;;11.27;100.00;96805.38;5039693;28;20037;-81
2023/11/05 09:46:42;;;;;;;0.00;0.00;;;;;;;11.25;100.00;96815.94;5036513;28;20138;-78
2023/11/05 09:49:13;;;;;;;0.70;0.22;;;;;;;11.27;100.00;96814.06;5048910;28;20042;-87
2023/11/05 09:51:40;;;;;;;0.80;0.40;;;;;;;11.27;100.00;96821.09;5023445;28;20086;-77
2023/11/05 09:54:10;;;;;;;0.28;0.22;;;;;;;11.29;100.00;96819.19;5037203;28;20104;-77
2023/11/05 09:56:37;;;;;;;0.68;0.20;;;;;;;11.26;100.00;96822.88;5036160;28;20041;-78
2023/11/05 09:59:03;;;;;;;0.90;0.20;;;;;;;11.28;100.00;96822.75;5029942;28;20057;-80
2023/11/05 10:01:35;;;;;;;0.20;0.15;;;;;;;11.33;100.00;96829.34;5023754;28;20076;-81
2023/11/05 10:04:10;;;;;;;0.95;0.20;;;;;;;11.51;100.00;96827.16;5042755;28;20044;-82
2023/11/05 10:06:37;;;;;;;0.73;0.10;;;;;;;11.66;100.00;96826.94;5029965;28;20064;-78
2023/11/05 10:09:04;;;;;;;0.20;0.20;;;;;;;11.69;100.00;96830.19;5042665;28;20473;-79
2023/11/05 10:11:31;;;;;;;1.13;0.30;;;;;;;11.86;100.00;96830.66;5042378;28;20056;-80
2023/11/05 10:13:58;;;;;;;0.95;0.30;;;;;;;11.71;99.54;96823.03;5036454;28;20052;-80
2023/11/05 10:16:27;;;;;;;0.40;0.40;;;;;;;11.70;99.15;96834.44;5042145;28;20044;-77
2023/11/05 10:18:55;;;;;;;0.43;0.15;;;;;;;11.73;99.66;96838.63;5043184;28;20112;-78
2023/11/05 10:21:35;;;;;;;0.52;0.20;;;;;;;11.82;100.00;96844.97;5042867;28;20485;-81
2023/11/05 10:24:03;;;;;;;4.80;0.50;;;;;;;11.77;100.00;96842.66;5040278;28;20438;-78
2023/11/05 10:26:34;;;;;;;0.85;0.43;;;;;;;11.78;100.00;96848.78;5041689;28;20055;-81
2023/11/05 10:29:02;;;;;;;0.40;0.20;;;;;;;11.71;100.00;96856.25;5027496;28;20392;-79
2023/11/05 10:31:30;;;;;;;1.95;0.45;;;;;;;11.69;100.00;96864.22;5043052;28;20065;-81
2023/11/05 10:33:58;;;;;;;0.68;0.17;;;;;;;11.72;99.88;96860.53;5046191;28;20046;-80
2023/11/05 10:36:25;;;;;;;0.52;0.30;;;;;;;11.85;99.70;96858.69;5040927;28;20033;-78
2023/11/05 10:38:52;;;;;;;0.32;0.20;;;;;;;11.86;99.52;96869.97;5029452;28;20087;-78
2023/11/05 10:41:20;;;;;;;2.08;0.10;;;;;;;11.89;99.81;96872.38;5037584;28;20076;-79
2023/11/05 10:43:48;;;;;;;0.20;0.10;;;;;;;11.90;98.04;96874.88;5044876;28;20076;-79
2023/11/05 10:46:21;;;;;;;0.13;0.10;;;;;;;11.95;99.14;96873.69;5042025;28;20037;-82
2023/11/05 10:48:51;;;;;;;0.25;0.25;;;;;;;11.91;98.83;96884.44;5038415;28;20069;-77
2023/11/05 10:51:22;;;;;;;1.10;0.13;;;;;;;11.94;99.09;96880.72;5040872;28;20060;-84
2023/11/05 10:53:52;;;;;;;0.40;0.10;;;;;;;12.03;99.04;96884.47;5054700;28;20045;-84
2023/11/05 10:56:33;;;;;;;0.80;0.10;;;;;;;12.04;98.58;96886.16;5042786;28;20044;-82
2023/11/05 10:59:02;;;;;;;0.63;0.20;;;;;;;12.16;99.29;96887.84;5040405;28;20059;-80
2023/11/05 11:01:33;;;;;;;0.38;0.10;;;;;;;12.07;97.54;96886.75;5029414;28;20686;-80
2023/11/05 11:04:29;;;;;;;0.30;0.30;;;;;;;12.16;97.72;96900.97;5042928;28;20138;-79
2023/11/05 11:06:56;;;;;;;0.28;0.10;;;;;;;12.21;97.65;96897.97;5040982;28;20057;-82
2023/11/05 11:09:24;;;;;;;0.13;0.10;;;;;;;12.22;97.68;96900.47;5039636;28;20041;-81
2023/11/05 11:12:00;;;;;;;0.20;0.20;;;;;;;12.20;97.41;96904.16;5047667;28;20049;-78
2023/11/05 11:14:28;;;;;;;0.47;0.10;;;;;;;12.17;97.18;96897.38;5045850;28;20496;-80
2023/11/05 11:16:55;;;;;;;1.10;0.47;;;;;;;12.16;98.21;96900.97;5044514;28;20036;-80
2023/11/05 11:19:23;;;;;;;0.55;0.22;;;;;;;12.13;98.01;96911.66;5043352;28;20048;-85
2023/11/05 11:21:57;;;;;;;0.13;0.10;;;;;;;12.23;98.04;96907.41;5047236;28;20057;-78
2023/11/05 11:24:43;;;;;;;0.00;0.00;;;;;;;12.24;97.96;96909.06;5044353;28;20112;-80
2023/11/05 11:27:14;;;;;;;0.10;0.10;;;;;;;12.19;98.20;96916.44;5043920;28;20472;-80
2023/11/05 11:29:42;;;;;;;0.10;0.10;;;;;;;12.09;98.44;96923.34;5041176;28;20049;-78
2023/11/05 11:32:10;;;;;;;0.10;0.10;;;;;;;12.15;98.12;96922.88;5045547;28;20033;-78
2023/11/05 11:34:37;;;;;;;0.40;0.10;;;;;;;12.18;98.17;96927.06;5029566;28;20106;-78